Van Buren Township, Michigan
Current Conditions -  °F | °C
As of 3:53 PM on Thursday 27 Nov 2014 (Local Time) from KYIP Reporting Station
Overcast Overcast  
Wind Chill: 27°   Ceiling: 4500
Heat Index: 35°   Visibility: 10mi
Dew Point: 22°   Wind: 12mph
Humidity: 59%   Direction: 310°NW
Pressure: 30.18"   Gusts: NA
Location:  42.1781°N, 83.4854°W
Report Text: KYIP 272053Z 31010KT 10SM FEW028 OVC045 02/M06 A3018 RMK AO2 SNB33E42 SLP226 P0000 60000 T00171056 53012
Loading
Personal Weather Stations






























Interactive Weather Map New forecast layout! Learn more

10-Day Weather Forecast

Advertisements
Track Severe Weather on mobile